Data for 02/11/2009

Time Sea-Level Adjusted Pressure Absolute Pressure Temperature Relative Humidity Dew Point   
(mb) (inHg) (mb) (inHg) (C) (F) (%) (C) (F)
00:05 1012 29.88 841 24.83 -6.1 21 71 -10.6 13
00:10 1012 29.88 841 24.83 -6.2 20.8 70 -10.8 12.6
00:15 1012 29.88 841 24.83 -6.3 20.7 70 -11 12.2
00:20 1012 29.88 841 24.83 -6.3 20.6 70 -10.9 12.3
00:25 1012 29.88 841 24.83 -6.4 20.5 69 -11.2 11.8
00:30 1012 29.88 841 24.83 -6.5 20.3 69 -11.4 11.5
00:35 1012 29.88 841 24.83 -6.7 20 69 -11.5 11.3
00:40 1012 29.88 841 24.83 -6.6 20.1 68 -11.6 11.2
00:45 1012 29.88 841 24.83 -6.6 20.1 69 -11.3 11.6
00:50 1012 29.88 841 24.83 -6.6 20.1 70 -11.2 11.9
00:55 1012 29.88 841 24.83 -7 19.4 73 -11 12.2
01:00 1012 29.88 841 24.83 -7.2 19.1 70 -11.7 11
01:05 1012 29.88 841 24.83 -6.9 19.5 68 -11.9 10.6
01:10 1012 29.88 841 24.83 -6.8 19.8 68 -11.8 10.8
01:15 1012 29.88 841 24.83 -6.9 19.5 67 -12 10.4
01:20 1012 29.88 841 24.83 -6.9 19.7 65 -12.4 9.6
01:25 1012 29.88 841 24.83 -7 19.4 69 -11.9 10.6
01:30 1012 29.88 841 24.83 -7.5 18.4 70 -12.1 10.2
01:35 1012 29.88 841 24.83 -7.7 18.2 69 -12.4 9.6
01:40 1012 29.88 841 24.83 -7.8 18 69 -12.6 9.4
01:45 1012 29.88 841 24.83 -7.7 18.1 69 -12.4 9.6
01:50 1012 29.88 841 24.83 -7.8 18 70 -12.4 9.6
01:55 1012 29.88 841 24.83 -7.8 18 70 -12.3 9.8
02:00 1012 29.88 841 24.83 -7.8 18 70 -12.4 9.7
02:05 1012 29.88 841 24.83 -7.8 17.9 70 -12.4 9.6
02:10 1012 29.88 841 24.83 -7.8 18 68 -12.6 9.3
02:15 1012 29.88 841 24.83 -7.6 18.3 68 -12.6 9.4
02:20 1012 29.88 841 24.83 -7.7 18.2 68 -12.5 9.5
02:25 1012 29.88 841 24.83 -7.7 18.2 69 -12.5 9.5
02:30 1012 29.88 841 24.83 -7.7 18.2 69 -12.5 9.5
02:35 1012 29.88 841 24.83 -7.7 18.1 69 -12.4 9.7
02:40 1012 29.88 841 24.83 -7.8 18 70 -12.4 9.7
02:45 1012 29.88 841 24.83 -7.9 17.8 70 -12.5 9.6
02:50 1012 29.88 841 24.83 -8 17.5 71 -12.4 9.6
02:55 1012 29.88 841 24.83 -8.2 17.3 72 -12.4 9.6
03:00 1012 29.88 841 24.83 -8.2 17.2 71 -12.6 9.4
03:05 1012 29.88 841 24.83 -8.2 17.2 71 -12.5 9.5
03:10 1012 29.88 841 24.83 -8.3 17.2 71 -12.6 9.4
03:15 1012 29.88 841 24.83 -8.5 16.7 72 -12.7 9.2
03:20 1012 29.88 841 24.83 -8.7 16.3 73 -12.7 9.2
03:25 1012 29.88 841 24.83 -9.3 15.3 76 -12.8 8.9
03:30 1012 29.88 841 24.83 -9.6 14.7 76 -13.2 8.3
03:35 1012 29.88 841 24.83 -9.6 14.7 75 -13.2 8.2
03:40 1012 29.88 841 24.83 -9.5 14.8 74 -13.3 8
03:45 1012 29.88 841 24.83 -9.5 14.9 75 -13.2 8.2
03:50 1012 29.88 841 24.83 -9.7 14.6 75 -13.4 7.9
03:55 1012 29.88 841 24.83 -9.7 14.5 75 -13.3 8
04:00 1012 29.88 841 24.83 -9.6 14.8 74 -13.4 7.9
04:05 1012 29.88 841 24.83 -9.5 15 73 -13.4 7.9
04:10 1012 29.88 842 24.86 -9.5 14.9 74 -13.3 8
04:15 1012 29.88 842 24.86 -9.5 14.9 73 -13.4 7.9
04:20 1012 29.88 842 24.86 -9.1 15.6 72 -13.3 8.1
04:25 1012 29.88 842 24.86 -9.3 15.3 72 -13.4 7.9
04:30 1012 29.88 842 24.86 -9.4 15 74 -13.2 8.2
04:35 1012 29.88 842 24.86 -9.6 14.7 75 -13.2 8.2
04:40 1012 29.88 842 24.86 -9.6 14.8 73 -13.6 7.5
04:45 1013 29.91 842 24.86 -9.5 14.9 73 -13.5 7.7
04:50 1013 29.91 842 24.86 -9.4 15.2 72 -13.6 7.6
04:55 1013 29.91 842 24.86 -9.3 15.3 71 -13.6 7.4
05:00 1013 29.91 842 24.86 -9.1 15.6 71 -13.4 7.9
05:05 1013 29.91 842 24.86 -8.8 16.2 69 -13.5 7.7
05:10 1013 29.91 842 24.86 -8.8 16.2 70 -13.4 8
05:15 1013 29.91 842 24.86 -8.9 15.9 71 -13.3 8
05:20 1013 29.91 842 24.86 -9.1 15.7 72 -13.3 8.1
05:25 1013 29.91 842 24.86 -9.1 15.5 72 -13.3 8.1
05:30 1013 29.91 842 24.86 -9.2 15.5 72 -13.4 7.9
05:35 1013 29.91 842 24.86 -9.1 15.6 71 -13.4 7.9
05:40 1013 29.91 842 24.86 -9.1 15.6 70 -13.6 7.6
05:45 1013 29.91 842 24.86 -9 15.9 71 -13.4 7.9
05:50 1013 29.91 842 24.86 -8.9 15.9 72 -13.2 8.3
05:55 1013 29.91 842 24.86 -9.1 15.7 72 -13.1 8.3
06:00 1013 29.91 842 24.86 -9.1 15.7 72 -13.3 8.1
06:05 1013 29.91 842 24.86 -9.1 15.7 72 -13.2 8.3
06:10 1013 29.91 842 24.86 -8.9 16 72 -13.1 8.4
06:15 1013 29.91 842 24.86 -8.8 16.1 72 -13 8.6
06:20 1013 29.91 842 24.86 -9.1 15.7 73 -13.1 8.5
06:25 1013 29.91 842 24.86 -9.2 15.4 73 -13.2 8.2
06:30 1013 29.91 842 24.86 -9.1 15.7 72 -13.2 8.2
06:35 1013 29.91 842 24.86 -9 15.7 72 -13.3 8.1
06:40 1013 29.91 842 24.86 -8.8 16.2 70 -13.3 8
06:45 1013 29.91 842 24.86 -8.6 16.4 70 -13.2 8.3
06:50 1013 29.91 842 24.86 -8.3 17.1 69 -13.1 8.5
06:55 1013 29.91 842 24.86 -8.1 17.4 69 -12.8 9
07:00 1013 29.91 842 24.86 -8.2 17.3 70 -12.7 9.1
07:05 1013 29.91 842 24.86 -8.4 17 71 -12.7 9.2
07:10 1013 29.91 842 24.86 -8.3 17.1 71 -12.7 9.2
07:15 1013 29.91 842 24.86 -8.4 16.9 72 -12.6 9.3
07:20 1013 29.91 842 24.86 -8.5 16.7 72 -12.7 9.2
07:25 1013 29.91 842 24.86 -8.7 16.4 73 -12.7 9.2
07:30 1013 29.91 842 24.86 -8.7 16.4 74 -12.6 9.3
07:35 1013 29.91 842 24.86 -8.7 16.4 74 -12.5 9.5
07:40 1013 29.91 842 24.86 -8.8 16.2 74 -12.7 9.2
07:45 1013 29.91 842 24.86 -8.7 16.3 73 -12.7 9.2
07:50 1013 29.91 842 24.86 -8.8 16.2 72 -12.9 8.8
07:55 1013 29.91 842 24.86 -8.7 16.4 73 -12.6 9.2
08:00 1013 29.91 843 24.89 -8.6 16.6 72 -12.8 9
08:05 1013 29.91 843 24.89 -8.5 16.8 71 -12.8 8.9
08:10 1013 29.91 843 24.89 -8.3 17.1 69 -13.1 8.5
08:15 1013 29.91 843 24.89 -8.1 17.4 68 -13 8.5
08:20 1013 29.91 843 24.89 -8 17.6 68 -12.8 8.9
08:25 1013 29.91 843 24.89 -7.8 18 68 -12.7 9.1
08:30 1014 29.94 843 24.89 -7.5 18.5 68 -12.5 9.5
08:35 1014 29.94 843 24.89 -7.6 18.4 68 -12.5 9.4
08:40 1014 29.94 843 24.89 -7.6 18.4 67 -12.7 9.2
08:45 1014 29.94 843 24.89 -7.5 18.6 69 -12.3 9.9
08:50 1014 29.94 843 24.89 -7.4 18.8 69 -12.1 10.2
08:55 1014 29.94 843 24.89 -7 19.4 68 -11.9 10.6
09:00 1014 29.94 843 24.89 -6.7 20 68 -11.5 11.2
09:05 1014 29.94 843 24.89 -6.4 20.4 68 -11.3 11.6
09:10 1014 29.94 843 24.89 -6.4 20.5 68 -11.4 11.5
09:15 1014 29.94 843 24.89 -6.2 20.9 69 -11 12.2
09:20 1014 29.94 843 24.89 -6 21.2 68 -11 12.3
09:25 1014 29.94 843 24.89 -5.7 21.7 65 -11.2 11.8
09:30 1014 29.94 843 24.89 -5.4 22.4 60 -11.9 10.5
09:35 1014 29.94 843 24.89 -4.9 23.1 58 -12.1 10.3
09:40 1014 29.94 843 24.89 -5 23 60 -11.6 11.1
09:45 1014 29.94 843 24.89 -5 23 60 -11.6 11.1
09:50 1014 29.94 843 24.89 -4.8 23.4 58 -11.8 10.8
09:55 1014 29.94 843 24.89 -4.9 23.2 59 -11.8 10.8
10:00 1014 29.94 843 24.89 -4.8 23.4 58 -11.9 10.6
10:05 1014 29.94 843 24.89 -4.8 23.4 58 -11.8 10.8
10:10 1014 29.94 843 24.89 -4.2 24.4 57 -11.6 11.1
10:15 1014 29.94 843 24.89 -4 24.8 56 -11.6 11.2
10:20 1014 29.94 843 24.89 -3.7 25.4 54 -11.7 10.9
10:25 1014 29.94 843 24.89 -3.8 25.2 55 -11.5 11.4
10:30 1014 29.94 843 24.89 -3.8 25.2 56 -11.4 11.5
10:35 1014 29.94 843 24.89 -3.5 25.7 55 -11.2 11.8
10:40 1014 29.94 843 24.89 -3.5 25.7 55 -11.3 11.6
10:45 1014 29.94 843 24.89 -2.6 27.4 52 -11.2 11.9
10:50 1014 29.94 843 24.89 -2.1 28.2 51 -10.9 12.5
10:55 1014 29.94 843 24.89 -1.9 28.5 49 -11.2 11.9
11:00 1014 29.94 843 24.89 -2.2 28 52 -10.8 12.6
11:05 1014 29.94 843 24.89 -1.9 28.5 51 -10.8 12.6
11:10 1014 29.94 843 24.89 -2.6 27.4 52 -11.1 12.1
11:15 1014 29.94 843 24.89 -1.8 28.8 48 -11.4 11.4
11:20 1014 29.94 843 24.89 -1.2 29.8 48 -10.9 12.4
11:25 1014 29.94 843 24.89 -1 30.2 47 -11.1 12.1
11:30 1014 29.94 843 24.89 -1.5 29.4 48 -11.1 12
11:35 1014 29.94 843 24.89 -1.6 29.2 47 -11.4 11.4
11:40 1014 29.94 843 24.89 -0.9 30.4 46 -11.2 11.8
11:45 1014 29.94 843 24.89 -0.7 30.7 45 -11.1 12
11:50 1014 29.94 843 24.89 -0.7 30.7 47 -10.7 12.8
11:55 1014 29.94 843 24.89 -0.8 30.6 46 -10.9 12.3
12:00 1014 29.94 843 24.89 -0.8 30.6 47 -10.7 12.7
12:05 1014 29.94 843 24.89 -1.2 29.9 44 -11.9 10.6
12:10 1014 29.94 843 24.89 -0.8 30.6 46 -11.1 12.1
12:15 1014 29.94 843 24.89 -0.6 31 46 -10.9 12.3
12:20 1014 29.94 843 24.89 -0.9 30.3 46 -11.1 12
12:25 1014 29.94 843 24.89 -0.5 31.2 44 -11.4 11.5
12:30 1014 29.94 843 24.89 -0.3 31.5 43 -11.3 11.7
12:35 1014 29.94 843 24.89 0.1 32.2 40 -11.8 10.7
12:40 1014 29.94 843 24.89 -0.6 31 44 -11.3 11.7
12:45 1014 29.94 843 24.89 -0.8 30.6 44 -11.5 11.4
12:50 1014 29.94 843 24.89 -0.5 31 44 -11.4 11.4
12:55 1014 29.94 843 24.89 -0.2 31.6 42 -11.5 11.3
13:00 1014 29.94 843 24.89 -0.2 31.7 42 -11.5 11.3
13:05 1014 29.94 843 24.89 0.2 32.3 44 -10.8 12.5
13:10 1014 29.94 843 24.89 -0.7 30.7 47 -10.7 12.7
13:15 1014 29.94 843 24.89 0.1 32.1 44 -10.7 12.7
13:20 1014 29.94 843 24.89 0.3 32.5 43 -10.8 12.5
13:25 1014 29.94 843 24.89 0.1 32.2 44 -10.8 12.6
13:30 1014 29.94 843 24.89 -0.1 31.8 45 -10.6 13
13:35 1014 29.94 843 24.89 -0.6 31 47 -10.7 12.8
13:40 1014 29.94 843 24.89 -0.6 31 47 -10.4 13.3
13:45 1014 29.94 843 24.89 -0.3 31.4 47 -10.4 13.3
13:50 1014 29.94 843 24.89 -0.1 31.8 46 -10.5 13.1
13:55 1014 29.94 843 24.89 -0.6 30.8 48 -10.4 13.2
14:00 1014 29.94 843 24.89 -1.6 29.1 50 -10.7 12.7
14:05 1014 29.94 843 24.89 -1.3 29.7 51 -10.1 13.8
14:10 1014 29.94 843 24.89 -1.5 29.2 51 -10.4 13.3
14:15 1014 29.94 843 24.89 -1.2 29.8 49 -10.5 13.1
14:20 1014 29.94 843 24.89 -1.4 29.5 52 -10.1 13.8
14:25 1014 29.94 843 24.89 -1.2 29.8 52 -9.9 14.2
14:30 1014 29.94 843 24.89 -0.9 30.4 49 -10.4 13.2
14:35 1014 29.94 843 24.89 -1.1 30.1 49 -10.5 13.2
14:40 1014 29.94 843 24.89 -0.6 31 47 -10.5 13.1
14:45 1014 29.94 843 24.89 -0.8 30.6 48 -10.4 13.2
14:50 1014 29.94 843 24.89 -0.9 30.3 50 -10.1 13.7
14:55 1014 29.94 843 24.89 -1 30.3 48 -10.6 12.9
15:00 1014 29.94 843 24.89 -0.3 31.6 48 -10.1 13.9
15:05 1014 29.94 843 24.89 -0.6 30.9 48 -10.3 13.5
15:10 1014 29.94 843 24.89 -0.1 31.9 46 -10.4 13.2
15:15 1014 29.94 843 24.89 0.3 32.5 47 -9.7 14.5
15:20 1014 29.94 843 24.89 -0.6 30.9 49 -9.9 14.1
15:25 1014 29.94 843 24.89 0.1 32.1 47 -10 13.9
15:30 1014 29.94 843 24.89 0.9 33.6 44 -10.1 13.8
15:35 1014 29.94 843 24.89 1.2 34.1 45 -9.5 15
15:40 1014 29.94 843 24.89 0.5 32.9 47 -9.6 14.7
15:45 1014 29.94 843 24.89 0.2 32.4 47 -9.9 14.1
15:50 1014 29.94 843 24.89 0.1 32.2 47 -9.9 14.2
15:55 1014 29.94 843 24.89 0 32.1 47 -10 14
16:00 1014 29.94 843 24.89 0.4 32.7 46 -10 13.9
16:05 1014 29.94 843 24.89 0.5 32.8 46 -10 14
16:10 1014 29.94 843 24.89 0.6 33 45 -9.9 14.1
16:15 1014 29.94 843 24.89 -0 32 48 -9.8 14.4
16:20 1014 29.94 843 24.89 0.3 32.6 47 -9.8 14.4
16:25 1014 29.94 843 24.89 0.5 33 47 -9.6 14.6
16:30 1014 29.94 843 24.89 0.5 33 45 -9.9 14.1
16:35 1014 29.94 843 24.89 0.5 32.9 46 -9.7 14.5
16:40 1014 29.94 843 24.89 0.5 32.8 47 -9.6 14.6
16:45 1014 29.94 843 24.89 0.1 32.1 48 -9.7 14.5
16:50 1014 29.94 843 24.89 -0.4 31.3 50 -9.7 14.5
16:55 1014 29.94 843 24.89 -0.6 30.9 51 -9.6 14.7
17:00 1014 29.94 843 24.89 -0.8 30.6 51 -9.6 14.6
17:05 1014 29.94 843 24.89 -0.8 30.5 52 -9.4 15
17:10 1014 29.94 844 24.92 -1 30.2 52 -9.7 14.6
17:15 1014 29.94 844 24.92 -1.1 30 52 -9.7 14.5
17:20 1014 29.94 844 24.92 -1 30.1 52 -9.7 14.6
17:25 1014 29.94 844 24.92 -0.9 30.3 53 -9.4 15
17:30 1014 29.94 844 24.92 -0.8 30.5 53 -9.3 15.2
17:35 1014 29.94 844 24.92 -0.7 30.7 52 -9.3 15.3
17:40 1014 29.94 844 24.92 -0.6 31 51 -9.4 15.1
17:45 1014 29.94 844 24.92 -0.6 31 51 -9.5 15
17:50 1014 29.94 844 24.92 -0.5 31 51 -9.4 15.1
17:55 1014 29.94 844 24.92 -0.6 30.8 51 -9.5 14.9
18:00 1014 29.94 844 24.92 -0.7 30.7 52 -9.5 14.9
18:05 1015 29.97 844 24.92 -0.8 30.6 52 -9.4 15
18:10 1015 29.97 844 24.92 -1.2 29.8 54 -9.3 15.3
18:15 1015 29.97 844 24.92 -1.5 29.2 55 -9.5 15
18:20 1015 29.97 844 24.92 -1.5 29.4 54 -9.5 14.8
18:25 1015 29.97 844 24.92 -1.5 29.4 55 -9.4 15.2
18:30 1015 29.97 844 24.92 -1.3 29.6 54 -9.4 15
18:35 1015 29.97 844 24.92 -1.3 29.7 53 -9.6 14.7
18:40 1015 29.97 844 24.92 -1.4 29.4 55 -9.2 15.4
18:45 1015 29.97 844 24.92 -1.4 29.5 56 -9.1 15.6
18:50 1015 29.97 844 24.92 -1.4 29.5 55 -9.2 15.5
18:55 1015 29.97 844 24.92 -1.5 29.4 55 -9.4 15.2
19:00 1015 29.97 844 24.92 -1.4 29.5 55 -9.4 15.1
19:05 1015 29.97 844 24.92 -1.4 29.6 55 -9.4 15.1
19:10 1015 29.97 844 24.92 -1.3 29.6 54 -9.4 15.1
19:15 1015 29.97 844 24.92 -1.3 29.6 55 -9.3 15.2
19:20 1015 29.97 844 24.92 -1.4 29.5 55 -9.4 15.1
19:25 1015 29.97 844 24.92 -1.4 29.5 54 -9.5 15
19:30 1015 29.97 844 24.92 -1.3 29.6 54 -9.4 15.1
19:35 1015 29.97 844 24.92 -1.3 29.7 54 -9.4 15
19:40 1015 29.97 844 24.92 -1.3 29.7 53 -9.5 14.8
19:45 1015 29.97 844 24.92 -1.2 29.8 53 -9.5 14.8
19:50 1015 29.97 844 24.92 -1.3 29.7 54 -9.4 15.2
19:55 1015 29.97 844 24.92 -1.3 29.7 55 -9.3 15.2
20:00 1015 29.97 844 24.92 -1.3 29.7 55 -9.3 15.3
20:05 1015 29.97 844 24.92 -1.4 29.5 56 -9 15.7
20:10 1015 29.97 844 24.92 -1.4 29.5 56 -9.1 15.7
20:15 1015 29.97 844 24.92 -1.5 29.3 56 -9.1 15.7
20:20 1015 29.97 844 24.92 -1.6 29.2 56 -9.2 15.5
20:25 1015 29.97 844 24.92 -1.6 29.1 56 -9.2 15.4
20:30 1015 29.97 844 24.92 -1.6 29.1 56 -9.2 15.4
20:35 1015 29.97 844 24.92 -1.5 29.2 56 -9.2 15.4
20:40 1015 29.97 844 24.92 -1.5 29.3 55 -9.3 15.2
20:45 1015 29.97 844 24.92 -1.5 29.3 56 -9.3 15.3
20:50 1015 29.97 844 24.92 -1.5 29.3 56 -9.2 15.5
20:55 1015 29.97 844 24.92 -1.4 29.5 56 -9 15.7
21:00 1015 29.97 844 24.92 -1.4 29.4 57 -9 15.8
21:05 1015 29.97 844 24.92 -1.4 29.5 57 -8.8 16.1
21:10 1015 29.97 844 24.92 -1.4 29.5 58 -8.6 16.5
21:15 1015 29.97 844 24.92 -1.5 29.3 58 -8.6 16.5
21:20 1015 29.97 844 24.92 -1.5 29.4 59 -8.4 16.8
21:25 1015 29.97 844 24.92 -1.5 29.3 59 -8.5 16.7
21:30 1015 29.97 844 24.92 -1.5 29.2 59 -8.5 16.6
21:35 1015 29.97 844 24.92 -1.6 29.1 60 -8.4 16.9
21:40 1015 29.97 844 24.92 -1.6 29.1 60 -8.4 16.8
21:45 1015 29.97 844 24.92 -1.7 29 60 -8.4 16.9
21:50 1015 29.97 844 24.92 -1.7 29 61 -8.2 17.2
21:55 1015 29.97 844 24.92 -1.7 29 62 -8.1 17.4
22:00 1015 29.97 844 24.92 -1.7 28.9 61 -8.2 17.2
22:05 1015 29.97 844 24.92 -1.7 28.9 61 -8.3 17.1
22:10 1015 29.97 844 24.92 -1.7 28.9 60 -8.5 16.6
22:15 1015 29.97 844 24.92 -1.7 29 59 -8.6 16.5
22:20 1015 29.97 844 24.92 -1.7 29 58 -9 15.8
22:25 1015 29.97 844 24.92 -1.6 29 58 -9 15.9
22:30 1015 29.97 844 24.92 -1.6 29.2 58 -8.8 16.1
22:35 1015 29.97 844 24.92 -1.7 28.9 59 -8.8 16.2
22:40 1015 29.97 844 24.92 -1.9 28.5 59 -9 15.9
22:45 1015 29.97 844 24.92 -1.9 28.6 59 -8.9 16
22:50 1015 29.97 844 24.92 -1.9 28.5 59 -8.9 16
22:55 1015 29.97 844 24.92 -2 28.4 59 -8.9 15.9
23:00 1015 29.97 844 24.92 -2 28.4 59 -9 15.8
23:05 1015 29.97 844 24.92 -2 28.5 59 -8.9 15.9
23:10 1015 29.97 844 24.92 -1.9 28.5 59 -8.9 16
23:15 1015 29.97 844 24.92 -2 28.3 59 -8.9 15.9
23:20 1015 29.97 844 24.92 -2 28.4 60 -8.9 16
23:25 1015 29.97 844 24.92 -2.1 28.2 60 -8.9 16
23:30 1015 29.97 844 24.92 -2.1 28.2 60 -8.9 16
23:35 1015 29.97 845 24.95 -2.2 28.1 60 -8.9 16
23:40 1015 29.97 845 24.95 -2.2 28 60 -8.9 16
23:45 1015 29.97 845 24.95 -2.3 27.9 61 -8.8 16.2
23:50 1015 29.97 845 24.95 -2.4 27.7 61 -8.9 16
23:55 1015 29.97 845 24.95 -2.4 27.7 61 -8.9 16
24:00 1015 29.97 845 24.95 -2.5 27.5 62 -8.9 16